Time;durP1;ratioP1;P1;durP2;ratioP2;P2;SDS_P1;SDS_P2;PMS_P1;PMS_P2;Temp;Humidity;BMP_temperature;BMP_pressure;BME280_temperature;BME280_humidity;BME280_pressure;Samples;Min_cycle;Max_cycle;Signal;HPM_P1;HPM_P2
2024/01/27 00:00:41;;;;;;;6.15;2.58;;;;;;;6.28;100.00;102207.94;5038208;28;20496;-72
2024/01/27 00:03:10;;;;;;;10.10;2.70;;;;;;;6.20;100.00;102207.03;5013203;28;20038;-71
2024/01/27 00:05:38;;;;;;;6.50;2.45;;;;;;;6.14;100.00;102205.28;5041052;28;20061;-72
2024/01/27 00:08:10;;;;;;;12.98;2.33;;;;;;;6.08;100.00;102218.44;5033882;28;20061;-71
2024/01/27 00:10:38;;;;;;;10.98;2.80;;;;;;;5.95;99.95;102208.78;5022720;28;20053;-73
2024/01/27 00:13:08;;;;;;;9.43;2.17;;;;;;;6.02;93.87;102225.44;5027399;28;20041;-71
2024/01/27 00:15:42;;;;;;;10.73;2.58;;;;;;;6.00;91.97;102217.53;5013159;28;20051;-71
2024/01/27 00:18:12;;;;;;;13.50;3.33;;;;;;;5.97;93.21;102217.56;5020939;28;20162;-73
2024/01/27 00:20:41;;;;;;;15.27;2.67;;;;;;;5.92;94.06;102217.56;5017214;28;20801;-72
2024/01/27 00:23:09;;;;;;;12.63;2.30;;;;;;;5.88;95.69;102225.38;5035215;28;20525;-72
2024/01/27 00:25:37;;;;;;;11.10;2.60;;;;;;;5.83;96.82;102221.88;5027356;28;20069;-73
2024/01/27 00:28:08;;;;;;;12.32;2.72;;;;;;;5.72;98.59;102211.34;5023035;28;20318;-72
2024/01/27 00:30:39;;;;;;;13.05;2.90;;;;;;;5.66;99.66;102219.25;5020548;28;20041;-73
2024/01/27 00:33:11;;;;;;;14.63;2.70;;;;;;;5.71;99.41;102230.63;5029663;28;20156;-71
2024/01/27 00:35:40;;;;;;;11.27;2.53;;;;;;;5.60;98.57;102206.94;5043149;28;20111;-71
2024/01/27 00:38:13;;;;;;;17.50;3.17;;;;;;;5.62;98.13;102218.34;5030207;28;20486;-72
2024/01/27 00:40:42;;;;;;;10.18;1.98;;;;;;;5.65;98.50;102214.84;5000170;28;20081;-71
2024/01/27 00:43:12;;;;;;;7.03;2.20;;;;;;;5.62;97.76;102214.84;5045988;28;20454;-72
2024/01/27 00:45:40;;;;;;;7.70;2.38;;;;;;;5.62;98.20;102220.09;5039577;28;20054;-72
2024/01/27 00:48:12;;;;;;;8.30;2.42;;;;;;;5.57;96.50;102227.06;5029642;28;20888;-71
2024/01/27 00:50:40;;;;;;;15.93;2.63;;;;;;;5.57;95.33;102230.59;5035715;28;20046;-72
2024/01/27 00:53:12;;;;;;;11.38;2.72;;;;;;;5.54;95.50;102230.56;5036799;28;20089;-72
2024/01/27 00:55:43;;;;;;;9.60;2.15;;;;;;;5.46;96.78;102226.19;5046341;28;20060;-71
2024/01/27 00:58:14;;;;;;;10.25;2.45;;;;;;;5.40;98.00;102221.78;5029623;28;20037;-73
2024/01/27 01:00:43;;;;;;;15.73;2.35;;;;;;;5.39;99.00;102237.53;5041888;28;20381;-71
2024/01/27 01:03:13;;;;;;;13.43;2.88;;;;;;;5.31;100.00;102224.38;5032306;28;20623;-73
2024/01/27 01:05:42;;;;;;;14.77;2.13;;;;;;;5.34;99.29;102239.28;5030845;28;20107;-72
2024/01/27 01:08:13;;;;;;;10.60;2.05;;;;;;;5.31;99.40;102241.88;5030946;28;20121;-71
2024/01/27 01:10:43;;;;;;;13.65;2.67;;;;;;;5.24;100.00;102238.34;5036687;28;20041;-71
2024/01/27 01:13:12;;;;;;;8.88;1.88;;;;;;;5.21;99.91;102239.19;5035409;28;20045;-71
2024/01/27 01:15:42;;;;;;;9.82;2.30;;;;;;;5.29;99.32;102249.75;5033396;28;20068;-71
2024/01/27 01:18:10;;;;;;;7.45;1.45;;;;;;;5.38;98.24;102246.28;5028250;28;20080;-71
2024/01/27 01:20:42;;;;;;;13.63;2.22;;;;;;;5.35;98.89;102244.53;5031694;28;20053;-71
2024/01/27 01:23:10;;;;;;;10.93;1.98;;;;;;;5.33;99.10;102254.16;5038457;28;20502;-72
2024/01/27 01:25:39;;;;;;;10.52;2.05;;;;;;;5.27;100.00;102251.50;5012968;28;20056;-72
2024/01/27 01:28:09;;;;;;;11.20;2.00;;;;;;;5.12;100.00;102236.53;5045633;28;20526;-73
2024/01/27 01:30:39;;;;;;;15.70;2.80;;;;;;;5.18;100.00;102261.97;5019031;28;20842;-73
2024/01/27 01:33:07;;;;;;;11.60;2.10;;;;;;;5.15;100.00;102267.19;5024028;28;20038;-72
2024/01/27 01:35:37;;;;;;;10.48;2.15;;;;;;;5.14;100.00;102261.06;5009508;28;20045;-72
2024/01/27 01:38:06;;;;;;;13.82;2.45;;;;;;;5.13;100.00;102276.81;5031045;28;20541;-72
2024/01/27 01:40:35;;;;;;;11.75;2.50;;;;;;;5.07;100.00;102269.78;5030278;28;20038;-70
2024/01/27 01:43:04;;;;;;;10.45;2.20;;;;;;;5.01;100.00;102275.00;5044714;28;20053;-71
2024/01/27 01:45:32;;;;;;;10.57;2.10;;;;;;;5.02;100.00;102286.41;5027701;28;20071;-72
2024/01/27 01:48:01;;;;;;;10.32;2.13;;;;;;;4.96;100.00;102278.47;5047094;28;20132;-73
2024/01/27 01:50:35;;;;;;;10.80;2.25;;;;;;;4.94;100.00;102276.72;5025166;28;20049;-72
2024/01/27 01:53:05;;;;;;;;;;;;;;;4.92;100.00;102277.56;5021025;28;20049;-72
2024/01/27 01:55:35;;;;;;;9.23;2.23;;;;;;;4.89;100.00;102277.53;5023933;28;19932;-72
2024/01/27 01:58:07;;;;;;;9.65;2.25;;;;;;;4.85;100.00;102275.78;5024572;28;20467;-72
2024/01/27 02:00:35;;;;;;;12.65;2.45;;;;;;;4.82;100.00;102276.63;5030836;28;20147;-71
2024/01/27 02:03:04;;;;;;;8.15;2.25;;;;;;;4.75;100.00;102276.56;5030978;28;20069;-74
2024/01/27 02:05:34;;;;;;;13.35;2.17;;;;;;;4.78;100.00;102285.34;5019070;28;20041;-73
2024/01/27 02:08:04;;;;;;;11.82;2.60;;;;;;;4.77;100.00;102278.34;5029130;28;20061;-71
2024/01/27 02:10:36;;;;;;;10.45;1.90;;;;;;;4.70;100.00;102279.19;5032522;28;20502;-72
2024/01/27 02:13:20;;;;;;;11.50;2.45;;;;;;;4.72;100.00;102276.56;5025739;28;20728;-71
2024/01/27 02:15:51;;;;;;;10.00;1.92;;;;;;;4.70;100.00;102291.44;5046944;28;20059;-72
2024/01/27 02:18:22;;;;;;;11.98;1.83;;;;;;;4.67;100.00;102286.16;5015065;28;20041;-72
2024/01/27 02:20:52;;;;;;;8.25;2.05;;;;;;;4.64;100.00;102281.75;5007586;28;20040;-72
2024/01/27 02:23:25;;;;;;;13.00;2.67;;;;;;;4.62;100.00;102277.34;5028763;28;20048;-71
2024/01/27 02:25:59;;;;;;;9.00;2.08;;;;;;;4.62;100.00;102290.47;5031952;28;20056;-71
2024/01/27 02:28:27;;;;;;;10.93;2.05;;;;;;;4.55;100.00;102295.69;5033225;28;20046;-73
2024/01/27 02:30:56;;;;;;;10.43;2.22;;;;;;;4.55;100.00;102298.31;5025895;28;20059;-71
2024/01/27 02:33:24;;;;;;;12.35;2.70;;;;;;;4.53;100.00;102293.91;5022012;28;20053;-73
2024/01/27 02:35:56;;;;;;;22.23;2.92;;;;;;;4.42;100.00;102285.94;5014757;28;20053;-73
2024/01/27 02:38:24;;;;;;;11.73;2.55;;;;;;;4.40;100.00;102295.56;5028118;28;20045;-72
2024/01/27 02:40:52;;;;;;;9.40;2.20;;;;;;;4.42;100.00;102304.31;5022073;28;20055;-73
2024/01/27 02:43:24;;;;;;;12.07;2.20;;;;;;;4.40;100.00;102299.94;5039001;28;20038;-72
2024/01/27 02:45:55;;;;;;;11.68;2.30;;;;;;;4.26;100.00;102283.16;5032315;28;20136;-72
2024/01/27 02:48:24;;;;;;;12.10;2.22;;;;;;;4.29;100.00;102310.31;5049087;28;20042;-73
2024/01/27 02:50:54;;;;;;;14.35;3.50;;;;;;;4.24;100.00;102306.78;5024151;28;20136;-73
2024/01/27 02:53:23;;;;;;;9.80;2.15;;;;;;;4.17;100.00;102297.97;5011590;28;20609;-73
2024/01/27 02:55:51;;;;;;;13.00;2.95;;;;;;;4.17;100.00;102304.94;5055465;28;20045;-71
2024/01/27 02:58:19;;;;;;;10.60;2.45;;;;;;;4.12;100.00;102304.91;5037519;28;20056;-71
2024/01/27 03:00:48;;;;;;;10.00;2.47;;;;;;;4.10;100.00;102303.13;5024679;28;20446;-71
2024/01/27 03:03:19;;;;;;;13.88;2.80;;;;;;;4.05;100.00;102315.31;5035662;28;20061;-72
2024/01/27 03:05:47;;;;;;;16.80;3.50;;;;;;;4.03;100.00;102311.81;5048318;28;20041;-72
2024/01/27 03:08:16;;;;;;;13.18;3.20;;;;;;;3.91;100.00;102306.44;5029717;28;20049;-71
2024/01/27 03:10:44;;;;;;;18.55;2.90;;;;;;;3.87;100.00;102306.41;5026794;28;20662;-71
2024/01/27 03:13:16;;;;;;;8.13;2.00;;;;;;;3.86;100.00;102312.50;5037933;28;20052;-71
2024/01/27 03:15:48;;;;;;;15.43;3.55;;;;;;;3.84;100.00;102308.09;5031639;28;20033;-72
2024/01/27 03:18:17;;;;;;;14.93;2.83;;;;;;;3.83;100.00;102316.81;5025888;28;20056;-71
2024/01/27 03:20:45;;;;;;;16.83;2.63;;;;;;;3.79;100.00;102318.53;5029631;28;20045;-71
2024/01/27 03:23:18;;;;;;;13.50;2.70;;;;;;;3.79;100.00;102309.78;5038129;28;20065;-72
2024/01/27 03:25:48;;;;;;;11.75;2.35;;;;;;;3.76;100.00;102312.38;5033854;28;20436;-71
2024/01/27 03:28:17;;;;;;;14.00;2.80;;;;;;;3.71;100.00;102314.06;5030020;28;20445;-71
2024/01/27 03:30:45;;;;;;;16.08;3.33;;;;;;;3.69;100.00;102313.16;5029806;28;20045;-72
2024/01/27 03:33:15;;;;;;;9.30;2.88;;;;;;;3.65;100.00;102313.97;5022687;28;20049;-71
2024/01/27 03:35:44;;;;;;;10.50;2.33;;;;;;;3.60;100.00;102313.94;5041309;28;20509;-71
2024/01/27 03:38:13;;;;;;;11.32;2.65;;;;;;;3.60;100.00;102305.22;5030354;28;20049;-72
2024/01/27 03:40:42;;;;;;;8.30;2.20;;;;;;;3.61;100.00;102314.84;5022608;28;20038;-72
2024/01/27 03:43:11;;;;;;;10.80;2.90;;;;;;;3.55;100.00;102301.66;5004140;28;20539;-72
2024/01/27 03:45:39;;;;;;;10.23;2.70;;;;;;;3.61;100.00;102312.22;5033273;28;20041;-73
2024/01/27 03:48:08;;;;;;;15.13;2.58;;;;;;;3.66;100.00;102314.00;5030771;28;20049;-72
2024/01/27 03:50:45;;;;;;;15.45;2.90;;;;;;;3.75;100.00;102318.50;5006141;28;20049;-71
2024/01/27 03:53:16;;;;;;;12.68;2.25;;;;;;;3.72;100.00;102319.34;5038147;28;20894;-72
2024/01/27 03:55:45;;;;;;;12.43;2.53;;;;;;;3.62;100.00;102299.09;5033241;28;20402;-72
2024/01/27 03:58:13;;;;;;;6.78;2.42;;;;;;;3.73;100.00;102310.59;5046175;28;20501;-71
2024/01/27 04:00:45;;;;;;;9.95;2.78;;;;;;;3.77;100.00;102320.28;5029760;28;20574;-72
2024/01/27 04:03:13;;;;;;;12.18;2.50;;;;;;;3.80;100.00;102330.75;5007375;28;20048;-72
2024/01/27 04:05:43;;;;;;;11.07;2.28;;;;;;;3.86;100.00;102336.09;5025824;28;20044;-72
2024/01/27 04:08:12;;;;;;;11.50;2.63;;;;;;;3.82;100.00;102321.19;5018257;28;20517;-74
2024/01/27 04:10:40;;;;;;;11.75;2.38;;;;;;;3.84;100.00;102323.81;5013033;28;20045;-71
2024/01/27 04:13:10;;;;;;;9.82;2.70;;;;;;;3.92;100.00;102335.28;5024122;28;20052;-71
2024/01/27 04:15:39;;;;;;;11.75;3.03;;;;;;;3.87;100.00;102336.97;5030785;28;20072;-72
2024/01/27 04:18:11;;;;;;;13.43;3.15;;;;;;;3.83;100.00;102346.53;5029316;28;20042;-72
2024/01/27 04:20:45;;;;;;;12.70;3.25;;;;;;;3.72;100.00;102335.06;5027422;28;20440;-72
2024/01/27 04:23:26;;;;;;;8.15;2.63;;;;;;;3.64;100.00;102322.69;5016846;28;20441;-72
2024/01/27 04:25:56;;;;;;;17.70;2.97;;;;;;;3.73;100.00;102355.16;5029959;28;20056;-74
2024/01/27 04:28:26;;;;;;;9.77;2.78;;;;;;;3.72;100.00;102348.16;5029905;28;20057;-72
2024/01/27 04:30:55;;;;;;;13.43;2.55;;;;;;;3.74;100.00;102346.44;5029631;28;20058;-71
2024/01/27 04:33:25;;;;;;;12.60;2.72;;;;;;;3.70;100.00;102347.25;5019435;28;20470;-73
2024/01/27 04:35:54;;;;;;;14.18;2.72;;;;;;;3.64;100.00;102346.28;5027539;28;20056;-73
2024/01/27 04:38:23;;;;;;;11.75;3.13;;;;;;;3.57;100.00;102349.69;5031828;28;20628;-71
2024/01/27 04:40:53;;;;;;;12.23;3.45;;;;;;;3.41;100.00;102351.25;5029400;28;20128;-71
2024/01/27 04:43:22;;;;;;;11.57;3.45;;;;;;;3.28;100.00;102357.16;5003057;28;20049;-71
2024/01/27 04:45:53;;;;;;;10.18;3.17;;;;;;;3.20;100.00;102356.16;5033113;28;20117;-71
2024/01/27 04:48:22;;;;;;;;;;;;;;;3.20;100.00;102362.28;5037488;28;20038;-72
2024/01/27 04:50:51;;;;;;;14.73;3.33;;;;;;;3.16;100.00;102365.69;5045291;28;20162;-71
2024/01/27 04:53:22;;;;;;;10.27;3.05;;;;;;;3.09;100.00;102363.88;5034483;28;20175;-71
2024/01/27 04:55:52;;;;;;;12.32;3.42;;;;;;;2.98;100.00;102371.56;5012794;28;20612;-71
2024/01/27 04:58:22;;;;;;;11.93;4.03;;;;;;;2.91;100.00;102367.06;5049434;28;20664;-71
2024/01/27 05:00:54;;;;;;;13.05;3.38;;;;;;;2.84;100.00;102373.06;5025727;28;20059;-71
2024/01/27 05:03:24;;;;;;;8.60;2.78;;;;;;;2.97;100.00;102368.94;5027629;28;20056;-72
2024/01/27 05:05:52;;;;;;;14.90;3.50;;;;;;;2.99;100.00;102372.44;5017121;28;20075;-71
2024/01/27 05:08:23;;;;;;;12.48;3.30;;;;;;;3.07;100.00;102374.31;5034935;28;20057;-72
2024/01/27 05:10:53;;;;;;;10.68;3.05;;;;;;;3.11;100.00;102378.75;5032741;28;20144;-71
2024/01/27 05:13:25;;;;;;;9.68;3.72;;;;;;;3.14;100.00;102378.81;5043802;28;20048;-71
2024/01/27 05:15:54;;;;;;;6.82;2.85;;;;;;;3.13;100.00;102381.38;5057778;28;20053;-72
2024/01/27 05:18:25;;;;;;;10.50;2.80;;;;;;;3.15;100.00;102383.16;5036406;28;20052;-72
2024/01/27 05:20:54;;;;;;;11.57;2.97;;;;;;;3.18;100.00;102390.16;5038751;28;20521;-72
2024/01/27 05:23:21;;;;;;;10.38;2.88;;;;;;;3.22;100.00;102391.97;5016788;28;20045;-70
2024/01/27 05:25:49;;;;;;;10.48;2.90;;;;;;;3.22;100.00;102397.22;5044623;28;20632;-73
2024/01/27 05:28:23;;;;;;;10.85;3.28;;;;;;;3.11;100.00;102394.44;5045973;28;20037;-72
2024/01/27 05:30:56;;;;;;;10.18;3.58;;;;;;;3.07;100.00;102391.75;5038600;28;20064;-72
2024/01/27 05:33:24;;;;;;;12.13;3.40;;;;;;;3.03;100.00;102393.44;5028025;28;20041;-71
2024/01/27 05:35:52;;;;;;;12.63;3.00;;;;;;;2.94;100.00;102382.84;5046121;28;20155;-73
2024/01/27 05:38:22;;;;;;;9.90;2.92;;;;;;;3.03;100.00;102405.63;5034402;28;20496;-71
2024/01/27 05:40:51;;;;;;;10.00;3.20;;;;;;;3.04;100.00;102400.44;5023133;28;20054;-72
2024/01/27 05:43:22;;;;;;;13.65;3.15;;;;;;;3.09;100.00;102405.75;5021867;28;20152;-72
2024/01/27 05:45:53;;;;;;;11.27;3.20;;;;;;;3.05;100.00;102402.19;5050080;28;20052;-72
2024/01/27 05:48:21;;;;;;;;;;;;;;;2.92;100.00;102410.72;5039995;28;20056;-72
2024/01/27 05:50:58;;;;;;;13.73;3.50;;;;;;;2.82;100.00;102414.03;5051075;28;19951;-72
2024/01/27 05:53:27;;;;;;;12.95;3.75;;;;;;;2.66;100.00;102415.50;5020787;28;20052;-72
2024/01/27 05:55:59;;;;;;;13.88;3.58;;;;;;;2.65;100.00;102410.25;5026216;28;20518;-71
2024/01/27 05:58:29;;;;;;;10.07;2.90;;;;;;;2.69;100.00;102420.78;5027054;28;20523;-72
2024/01/27 06:00:57;;;;;;;9.02;3.00;;;;;;;2.74;100.00;102429.59;5029029;28;20407;-74
2024/01/27 06:03:26;;;;;;;10.93;3.47;;;;;;;2.75;100.00;102420.88;5013578;28;20088;-72
2024/01/27 06:05:54;;;;;;;11.50;3.17;;;;;;;2.78;100.00;102420.94;5025657;28;20069;-72
2024/01/27 06:08:23;;;;;;;13.57;3.60;;;;;;;2.77;100.00;102427.03;5046484;28;20107;-72
2024/01/27 06:10:52;;;;;;;13.20;3.67;;;;;;;2.72;100.00;102425.19;5019316;28;20112;-72
2024/01/27 06:13:20;;;;;;;15.75;3.85;;;;;;;2.73;100.00;102417.38;5020764;28;20037;-71
2024/01/27 06:15:50;;;;;;;13.00;3.83;;;;;;;2.63;100.00;102420.69;5027076;28;20052;-72
2024/01/27 06:18:19;;;;;;;15.15;3.72;;;;;;;2.49;100.00;102429.13;5032804;28;20037;-71
2024/01/27 06:20:48;;;;;;;9.35;3.30;;;;;;;2.36;100.00;102421.03;5018625;28;20041;-72
2024/01/27 06:23:18;;;;;;;12.85;3.25;;;;;;;2.36;100.00;102425.41;5042085;28;20056;-73
2024/01/27 06:25:46;;;;;;;18.75;3.83;;;;;;;2.30;100.00;102428.78;5037287;28;20120;-72
2024/01/27 06:28:17;;;;;;;8.10;3.30;;;;;;;2.19;100.00;102426.81;5048083;28;20057;-72
2024/01/27 06:30:46;;;;;;;14.63;4.35;;;;;;;2.15;100.00;102423.25;5052654;28;20864;-72
2024/01/27 06:33:18;;;;;;;11.88;3.67;;;;;;;2.08;100.00;102430.09;5031514;28;20565;-72
2024/01/27 06:35:49;;;;;;;12.75;3.80;;;;;;;2.01;100.00;102443.88;5012933;28;20041;-72
2024/01/27 06:38:17;;;;;;;11.60;3.63;;;;;;;1.99;100.00;102449.94;5032102;28;20049;-72
2024/01/27 06:40:51;;;;;;;10.55;3.75;;;;;;;1.90;100.00;102449.72;5031348;28;20421;-71
2024/01/27 06:43:20;;;;;;;14.55;4.57;;;;;;;1.78;100.00;102434.69;5021320;28;20033;-72
2024/01/27 06:45:48;;;;;;;7.95;3.35;;;;;;;1.87;100.00;102449.69;5033891;28;20045;-73
2024/01/27 06:48:25;;;;;;;12.68;3.67;;;;;;;1.83;100.00;102447.84;5033683;28;20421;-73
2024/01/27 06:50:56;;;;;;;11.02;4.15;;;;;;;1.88;100.00;102452.31;5030445;28;20068;-73
2024/01/27 06:53:28;;;;;;;12.73;4.30;;;;;;;1.81;100.00;102428.63;5022130;28;20053;-72
2024/01/27 06:55:57;;;;;;;17.45;3.97;;;;;;;2.06;100.00;102454.41;5029352;28;20061;-71
2024/01/27 06:58:25;;;;;;;10.07;3.95;;;;;;;2.06;100.00;102449.19;5030235;28;20073;-74
2024/01/27 07:00:56;;;;;;;13.15;3.78;;;;;;;2.14;100.00;102459.81;5027138;28;20041;-72
2024/01/27 07:03:29;;;;;;;13.25;4.07;;;;;;;2.17;100.00;102458.16;5019111;28;20065;-72
2024/01/27 07:06:00;;;;;;;12.77;3.70;;;;;;;2.19;100.00;102447.72;5023879;28;20042;-74
2024/01/27 07:08:29;;;;;;;12.45;3.47;;;;;;;2.17;100.00;102450.31;5042468;28;20465;-72
2024/01/27 07:10:57;;;;;;;11.25;4.00;;;;;;;2.07;100.00;102445.72;5049996;28;20046;-72
2024/01/27 07:13:29;;;;;;;15.00;4.03;;;;;;;1.86;100.00;102430.50;5049126;28;20034;-72
2024/01/27 07:15:58;;;;;;;18.45;4.18;;;;;;;1.89;100.00;102438.38;5034731;28;20049;-72
2024/01/27 07:18:34;;;;;;;10.20;4.22;;;;;;;1.97;100.00;102452.50;5033452;28;20053;-72
2024/01/27 07:21:07;;;;;;;13.43;4.15;;;;;;;2.07;100.00;102445.72;5030859;28;20045;-74
2024/01/27 07:23:36;;;;;;;15.55;4.40;;;;;;;2.02;100.00;102450.88;5018777;28;21408;-73
2024/01/27 07:26:10;;;;;;;18.58;3.97;;;;;;;1.91;100.00;102448.88;5032784;28;20041;-72
2024/01/27 07:28:39;;;;;;;10.75;4.18;;;;;;;1.75;100.00;102445.94;5034733;28;20038;-78
2024/01/27 07:31:08;;;;;;;12.73;4.75;;;;;;;1.70;100.00;102458.03;5028055;28;20048;-73
2024/01/27 07:33:54;;;;;;;18.08;4.35;;;;;;;1.67;100.00;102450.13;5040058;28;20219;-72
2024/01/27 07:36:23;;;;;;;16.45;4.30;;;;;;;1.65;100.00;102450.94;5025479;28;20045;-72
2024/01/27 07:38:51;;;;;;;16.90;4.32;;;;;;;1.67;100.00;102447.50;5026847;28;20049;-72
2024/01/27 07:41:19;;;;;;;13.55;4.50;;;;;;;1.64;100.00;102442.22;5032889;28;20065;-72
2024/01/27 07:43:47;;;;;;;13.77;4.60;;;;;;;1.68;100.00;102446.66;5022881;28;20049;-72
2024/01/27 07:46:16;;;;;;;13.45;5.07;;;;;;;1.73;100.00;102457.22;5016914;28;20038;-73
2024/01/27 07:48:46;;;;;;;12.68;4.68;;;;;;;1.70;100.00;102444.97;5033437;28;20049;-73
2024/01/27 07:51:17;;;;;;;12.55;4.28;;;;;;;1.91;100.00;102456.72;5043815;28;20041;-71
2024/01/27 07:53:48;;;;;;;11.30;4.35;;;;;;;2.06;100.00;102436.13;5038273;28;20049;-71
2024/01/27 07:56:16;;;;;;;10.02;4.32;;;;;;;2.40;100.00;102454.25;5029909;28;20095;-72
2024/01/27 07:58:46;;;;;;;12.20;4.22;;;;;;;2.45;100.00;102439.53;5030712;28;20573;-72
2024/01/27 08:01:18;;;;;;;10.73;4.18;;;;;;;2.64;100.00;102447.72;5044357;28;20041;-71
2024/01/27 08:03:48;;;;;;;10.27;4.00;;;;;;;2.64;100.00;102443.38;5035753;28;20117;-71
2024/01/27 08:06:19;;;;;;;13.48;4.97;;;;;;;2.70;100.00;102459.16;5052505;28;20117;-72
2024/01/27 08:08:49;;;;;;;14.35;5.72;;;;;;;2.83;100.00;102459.41;5032522;28;20045;-71
2024/01/27 08:11:18;;;;;;;17.80;5.15;;;;;;;2.97;100.00;102469.25;5044745;28;20487;-71
2024/01/27 08:13:54;;;;;;;11.20;4.10;;;;;;;3.14;100.00;102477.41;5004542;28;20564;-71
2024/01/27 08:16:25;;;;;;;16.42;4.47;;;;;;;3.24;100.00;102476.69;5047318;28;20061;-72
2024/01/27 08:18:55;;;;;;;13.10;4.95;;;;;;;3.32;100.00;102487.25;5046925;28;20056;-73
2024/01/27 08:21:24;;;;;;;14.07;4.18;;;;;;;3.31;100.00;102485.50;5045823;28;20103;-73
2024/01/27 08:23:52;;;;;;;10.52;3.78;;;;;;;3.27;100.00;102479.34;5027379;28;20073;-72
2024/01/27 08:26:23;;;;;;;12.68;4.10;;;;;;;3.24;100.00;102483.66;5037218;28;20045;-73
2024/01/27 08:28:51;;;;;;;;;;;;;;;3.05;100.00;102464.13;5017179;28;20686;-72
2024/01/27 08:31:20;;;;;;;13.57;3.97;;;;;;;3.15;100.00;102480.00;5012606;28;20381;-72
2024/01/27 08:33:48;;;;;;;9.50;4.15;;;;;;;3.11;100.00;102487.81;5017530;28;20129;-71
2024/01/27 08:36:18;;;;;;;12.90;4.22;;;;;;;3.18;100.00;102498.38;5040576;28;20053;-73
2024/01/27 08:38:47;;;;;;;15.25;5.03;;;;;;;3.08;100.00;102493.88;5043205;28;20033;-73
2024/01/27 08:41:15;;;;;;;16.73;4.93;;;;;;;3.16;100.00;102500.09;5016892;28;20050;-74
2024/01/27 08:43:43;;;;;;;15.05;4.97;;;;;;;3.31;100.00;102490.72;5021462;28;20442;-72
2024/01/27 08:46:15;;;;;;;10.98;4.25;;;;;;;3.46;100.00;102496.25;5032757;28;20496;-73
2024/01/27 08:48:44;;;;;;;15.98;5.13;;;;;;;3.58;100.00;102496.44;5030077;28;20052;-73
2024/01/27 08:51:16;;;;;;;12.93;4.43;;;;;;;3.58;100.00;102496.44;5021747;28;20048;-72
2024/01/27 08:53:49;;;;;;;11.82;4.00;;;;;;;3.67;100.00;102495.66;5032010;28;20053;-71
2024/01/27 08:56:18;;;;;;;12.13;4.55;;;;;;;3.82;100.00;102502.00;5034073;28;20616;-71
2024/01/27 08:58:47;;;;;;;13.80;4.70;;;;;;;3.92;100.00;102515.25;5039153;28;20093;-72
2024/01/27 09:01:17;;;;;;;11.18;4.47;;;;;;;3.96;100.00;102520.53;5044035;28;20124;-72
2024/01/27 09:03:46;;;;;;;10.73;4.35;;;;;;;4.00;100.00;102516.22;5034393;28;20318;-72
2024/01/27 09:06:14;;;;;;;13.50;4.57;;;;;;;4.08;100.00;102506.75;5025427;28;20276;-71
2024/01/27 09:08:46;;;;;;;24.27;4.70;;;;;;;4.08;100.00;102498.88;5042258;28;20103;-73
2024/01/27 09:11:18;;;;;;;11.65;5.00;;;;;;;4.07;100.00;102491.88;5019119;28;20248;-73
2024/01/27 09:13:46;;;;;;;12.18;5.03;;;;;;;4.17;100.00;102520.84;5013323;28;20062;-72
2024/01/27 09:16:14;;;;;;;18.35;4.55;;;;;;;3.96;100.00;102524.91;5034403;28;20049;-74
2024/01/27 09:18:43;;;;;;;11.98;4.03;;;;;;;3.73;100.00;102520.22;5032176;28;20049;-72
2024/01/27 09:21:14;;;;;;;22.20;5.38;;;;;;;3.69;100.00;102521.03;5035164;28;20108;-72
2024/01/27 09:23:42;;;;;;;13.07;4.63;;;;;;;3.76;100.00;102529.88;5040646;28;20057;-71
2024/01/27 09:26:15;;;;;;;14.48;4.80;;;;;;;3.65;100.00;102523.56;5036666;28;20042;-73
2024/01/27 09:28:44;;;;;;;16.08;5.03;;;;;;;3.59;100.00;102527.00;5039599;28;20033;-73
2024/01/27 09:31:14;;;;;;;16.55;5.20;;;;;;;3.57;100.00;102523.47;5023936;28;20460;-72
2024/01/27 09:33:45;;;;;;;12.93;5.13;;;;;;;3.70;100.00;102535.03;5018780;28;20172;-72
2024/01/27 09:36:14;;;;;;;13.65;4.68;;;;;;;3.79;100.00;102527.28;5035047;28;20054;-72
2024/01/27 09:38:42;;;;;;;12.70;4.88;;;;;;;3.78;100.00;102520.28;5021297;28;20405;-71
2024/01/27 09:41:17;;;;;;;13.55;4.75;;;;;;;3.76;100.00;102512.44;5027470;28;20072;-71
2024/01/27 09:43:48;;;;;;;16.30;4.68;;;;;;;3.96;100.00;102535.41;5035858;28;20421;-71
2024/01/27 09:46:17;;;;;;;13.70;4.72;;;;;;;3.89;100.00;102547.53;5039110;28;20057;-72
2024/01/27 09:48:49;;;;;;;15.63;5.25;;;;;;;3.83;100.00;102543.09;5029601;28;20046;-72
2024/01/27 09:51:17;;;;;;;15.52;4.97;;;;;;;3.88;100.00;102544.03;5034448;28;20044;-73
2024/01/27 09:53:46;;;;;;;13.45;5.10;;;;;;;4.06;100.00;102547.78;5019473;28;20053;-72
2024/01/27 09:56:17;;;;;;;13.65;5.55;;;;;;;4.24;100.00;102550.66;5015809;28;20038;-71
2024/01/27 09:58:47;;;;;;;11.30;5.05;;;;;;;4.40;100.00;102544.75;5020975;28;20046;-72
2024/01/27 10:01:18;;;;;;;13.68;4.60;;;;;;;4.33;100.00;102537.66;5039211;28;20666;-71
2024/01/27 10:03:49;;;;;;;15.40;4.32;;;;;;;4.35;100.00;102542.94;5023848;28;20448;-73
2024/01/27 10:06:19;;;;;;;21.33;5.10;;;;;;;4.25;100.00;102539.28;5011795;28;20103;-72
2024/01/27 10:08:54;;;;;;;16.00;4.88;;;;;;;4.34;100.00;102544.69;5021604;28;20509;-72
2024/01/27 10:11:30;;;;;;;12.15;4.05;;;;;;;4.38;100.00;102532.50;5028443;28;20061;-72
2024/01/27 10:14:01;;;;;;;11.68;4.50;;;;;;;4.59;100.00;102536.22;5021356;28;20176;-73
2024/01/27 10:16:29;;;;;;;12.98;4.63;;;;;;;4.76;100.00;102549.53;5034482;28;20043;-72
2024/01/27 10:19:01;;;;;;;18.17;4.90;;;;;;;4.75;100.00;102541.66;5030365;28;20059;-72
2024/01/27 10:21:35;;;;;;;16.05;5.35;;;;;;;4.64;100.00;102540.66;5012438;28;20057;-72
2024/01/27 10:24:06;;;;;;;17.05;5.18;;;;;;;4.56;100.00;102525.69;5019946;28;20060;-72
2024/01/27 10:26:35;;;;;;;;;;;;;;;4.68;100.00;102537.22;5019339;28;20047;-73
2024/01/27 10:29:06;;;;;;;18.58;5.45;;;;;;;4.79;100.00;102523.34;5019759;28;19959;-73
2024/01/27 10:31:40;;;;;;;19.73;5.75;;;;;;;4.93;100.00;102532.22;5021562;28;20056;-72
2024/01/27 10:34:14;;;;;;;16.92;5.68;;;;;;;5.03;100.00;102527.09;5024168;28;20045;-72
2024/01/27 10:36:44;;;;;;;14.43;5.10;;;;;;;5.05;100.00;102520.97;5029735;28;20064;-73
2024/01/27 10:39:23;;;;;;;16.05;5.30;;;;;;;5.07;100.00;102521.84;5028539;28;20103;-73
2024/01/27 10:41:54;;;;;;;14.90;5.63;;;;;;;5.31;100.00;102507.19;5050024;28;20113;-73
2024/01/27 10:44:23;;;;;;;11.10;5.00;;;;;;;5.48;100.00;102490.69;5026183;28;20105;-72
2024/01/27 10:46:57;;;;;;;15.27;5.05;;;;;;;5.62;100.00;102488.16;5031663;28;20144;-73
2024/01/27 10:49:28;;;;;;;16.30;5.78;;;;;;;5.63;100.00;102467.16;5015027;28;20049;-72
2024/01/27 10:51:58;;;;;;;10.30;4.78;;;;;;;5.67;100.00;102478.53;5045607;28;20042;-73
2024/01/27 10:54:31;;;;;;;12.90;4.80;;;;;;;5.57;100.00;102480.25;5010450;28;20046;-72
2024/01/27 10:57:03;;;;;;;16.50;4.53;;;;;;;5.46;100.00;102465.28;5033491;28;20526;-74
2024/01/27 10:59:36;;;;;;;12.05;4.50;;;;;;;5.45;100.00;102458.25;5048257;28;20041;-72
2024/01/27 11:02:14;;;;;;;16.73;5.07;;;;;;;5.45;100.00;102469.66;5034227;28;20045;-74
2024/01/27 11:04:49;;;;;;;17.55;4.43;;;;;;;5.53;100.00;102467.06;5040846;28;20052;-73
2024/01/27 11:07:22;;;;;;;17.80;5.07;;;;;;;5.74;100.00;102464.59;5048857;28;20040;-73
2024/01/27 11:09:52;;;;;;;12.02;4.22;;;;;;;5.87;100.00;102452.38;5024955;28;20052;-73
2024/01/27 11:12:23;;;;;;;11.50;4.10;;;;;;;5.80;100.00;102454.13;5048973;28;20045;-76
2024/01/27 11:14:53;;;;;;;14.90;4.95;;;;;;;5.82;100.00;102457.63;5024620;28;20073;-71
2024/01/27 11:17:26;;;;;;;14.15;4.38;;;;;;;5.98;100.00;102461.25;5042840;28;20045;-72
2024/01/27 11:19:59;;;;;;;13.77;4.15;;;;;;;6.09;100.00;102449.03;5029886;28;21270;-73
2024/01/27 11:22:30;;;;;;;15.60;3.97;;;;;;;6.13;100.00;102448.16;5052989;28;20056;-75
2024/01/27 11:25:08;;;;;;;14.77;4.43;;;;;;;6.22;100.00;102440.31;5028275;28;20044;-75
2024/01/27 11:27:41;;;;;;;17.05;4.00;;;;;;;6.39;100.00;102431.56;5044385;28;20084;-74
2024/01/27 11:30:28;;;;;;;14.48;4.60;;;;;;;6.45;100.00;102447.41;5033868;28;20513;-75
2024/01/27 11:33:01;;;;;;;12.18;3.85;;;;;;;6.46;100.00;102454.38;5030831;28;20106;-75